RJSN

Niigata Airport

Niigata, Japan
TAF RJSN 171705Z 1718/1900 15004KT 9999 FEW030 BECMG 1722/1800 02012KT BECMG 1818/1821 13006KT
Issued Valid From Valid To
Oct-17 @ 17:05 UTC
(2 hours ago)
Oct-17 @ 18:00 UTC
(an hour ago)
Oct-19 @ 00:00 UTC
(-1 days ago)
Oct-17 @ 18:00 to Oct-17 @ 22:00
TAF RJSN 171705Z 1718/1900 15004KT 9999 FEW030
Wind Visibility Clouds
150° at 4 knots 10,000+ meters
  • Few at 3,000' AGL
Becoming Oct-17 @ 22:00 to Oct-18 @ 18:00
BECMG 1722/1800 02012KT
Wind Visibility Clouds
20° at 12 knots 10,000+ meters
  • Few at 3,000' AGL
Becoming Oct-18 @ 18:00 to Oct-19 @ 00:00
BECMG 1818/1821 13006KT
Wind Visibility Clouds
130° at 6 knots 10,000+ meters
  • Few at 3,000' AGL
TAF RJSN 171705Z 1718/1900 15004KT 9999 FEW030 BECMG 1722/1800 02012KT BECMG 1818/1821 13006KT
Issued Oct-17 @ 17:05 UTC
(2 hours ago)
Valid From Oct-17 @ 18:00 UTC
(an hour ago)
Valid To Oct-19 @ 00:00 UTC
(-1 days ago)
Oct-17 @ 18:00 - Oct-17 @ 22:00
Wind Visibility
150° at 4 knots 10,000+ meters
Clouds
  • Few at 3,000' AGL
Becoming Oct-17 @ 22:00 - Oct-18 @ 18:00
Wind Visibility
20° at 12 knots 10,000+ meters
Clouds
  • Few at 3,000' AGL
Becoming Oct-18 @ 18:00 - Oct-19 @ 00:00
Wind Visibility
130° at 6 knots 10,000+ meters
Clouds
  • Few at 3,000' AGL